Kalamazoo/Battle Creek International Airport

Airport
ICAO code: 
KAZO
Summary
ICAO Region: 
NAM
Territory: 
Location: 
Kalamazoo / Battle Creek, Michigan,
Coordinates: 
Aerial View: 
42° 14' 2.087" N, 85° 33' 3.134" W
Airport CFIT: 
Altimeter Temperature Error Correction
Metar
Observation
KAZO 040753Z AUTO 27004KT 5SM BR BKN023 00/M01 A3012 RMK AO2 SLP207 I1000 T00001011
Station
Kalamazoo, Kalamazoo / Battle Creek International Airport
Date/Time
2021-12-04 07:53:00
Wind direction
270°
Wind speed
04 kts
Lowest cloud amount
broken clouds
Temperature
0°C
Dew point
-1.1°C
Humidity
92%
Weather condition
mist

Description

Kalamazoo/Battle Creek International Airport is a public use airport located 6 km southeast of the central business district of Kalamazoo, a city in Kalamazoo County, Michigan. The airport is also serves the nearby city of Battle Creek.

Climatology

Humid Continental climate (Köppen climate classification Dfb) - Variable weather patterns and a large seasonal temperature variance. Summers are often warm and humid with frequent thunderstorms and winters can be very cold with frequent snowfall and persistent snow cover.

Runways

Designator Length Width Surface Rops
9/27 853 18 ASP Yes/Yes
5/23 1047 30 ASP Yes/Yes
17/35 1981 46 ASP Yes/Yes
Airport map: 
Aerial View: 

SKYbrary Partners:

Safety knowledge contributed by: